Time;durP1;ratioP1;P1;durP2;ratioP2;P2;SDS_P1;SDS_P2;PMS_P1;PMS_P2;Temp;Humidity;BMP_temperature;BMP_pressure;BME280_temperature;BME280_humidity;BME280_pressure;Samples;Min_cycle;Max_cycle;Signal;HPM_P1;HPM_P2
2021/07/20 00:01:16;;;;;;;13.13;7.18;;;;;;;;;;5087785;28;20449;-84
2021/07/20 00:03:44;;;;;;;13.75;7.47;;;;;;;;;;5083238;28;20933;-84
2021/07/20 00:06:12;;;;;;;13.52;7.55;;;;;;;;;;5078715;28;20974;-84
2021/07/20 00:08:39;;;;;;;10.55;6.72;;;;;;;;;;5084213;28;20509;-85
2021/07/20 00:11:06;;;;;;;12.43;7.10;;;;;;;;;;5084712;28;20396;-85
2021/07/20 00:13:33;;;;;;;12.20;7.35;;;;;;;;;;5086492;28;20462;-84
2021/07/20 00:16:01;;;;;;;12.05;8.20;;;;;;;;;;5085572;28;20774;-84
2021/07/20 00:18:31;;;;;;;14.23;8.88;;;;;;;;;;5085643;28;20401;-84
2021/07/20 00:20:58;;;;;;;12.97;8.50;;;;;;;;;;5084520;28;20393;-84
2021/07/20 00:23:25;;;;;;;16.25;8.43;;;;;;;;;;5084468;28;20404;-85
2021/07/20 00:25:52;;;;;;;13.57;8.77;;;;;;;;;;5084851;28;20424;-84
2021/07/20 00:28:20;;;;;;;14.60;8.63;;;;;;;;;;5085609;28;20659;-86
2021/07/20 00:30:47;;;;;;;13.83;8.30;;;;;;;;;;5086114;28;20791;-86
2021/07/20 00:33:14;;;;;;;11.68;8.60;;;;;;;;;;5085938;28;20412;-85
2021/07/20 00:35:43;;;;;;;15.35;8.55;;;;;;;;;;5085703;28;20404;-84
2021/07/20 00:38:11;;;;;;;15.20;9.20;;;;;;;;;;5083835;28;20941;-86
2021/07/20 00:40:39;;;;;;;14.63;8.63;;;;;;;;;;5083760;28;20487;-86
2021/07/20 00:43:07;;;;;;;12.07;8.15;;;;;;;;;;5084067;28;20820;-84
2021/07/20 00:45:35;;;;;;;14.10;8.57;;;;;;;;;;5082792;28;20890;-84
2021/07/20 00:48:02;;;;;;;11.32;7.95;;;;;;;;;;5081872;28;20408;-85
2021/07/20 00:50:32;;;;;;;13.25;8.23;;;;;;;;;;5082857;28;20419;-86
2021/07/20 00:53:02;;;;;;;15.20;7.75;;;;;;;;;;5084643;28;20392;-85
2021/07/20 00:55:30;;;;;;;10.65;7.35;;;;;;;;;;5085281;28;20400;-86
2021/07/20 00:57:57;;;;;;;13.10;7.75;;;;;;;;;;5083757;28;20454;-86
2021/07/20 01:00:24;;;;;;;12.30;7.40;;;;;;;;;;5084383;28;20460;-86
2021/07/20 01:02:51;;;;;;;11.40;7.27;;;;;;;;;;5084044;28;20682;-86
2021/07/20 01:05:21;;;;;;;14.70;7.50;;;;;;;;;;5083843;28;20895;-86
2021/07/20 01:07:48;;;;;;;14.35;7.38;;;;;;;;;;5084199;28;20407;-86
2021/07/20 01:10:18;;;;;;;15.20;7.20;;;;;;;;;;5083794;28;20414;-86
2021/07/20 01:12:47;;;;;;;10.48;7.00;;;;;;;;;;5082812;28;20446;-86
2021/07/20 01:15:15;;;;;;;11.33;7.10;;;;;;;;;;5083303;28;20442;-86
2021/07/20 01:17:43;;;;;;;13.57;7.55;;;;;;;;;;5083712;28;20408;-86
2021/07/20 01:20:12;;;;;;;15.82;7.97;;;;;;;;;;5085028;28;20407;-86
2021/07/20 01:22:42;;;;;;;13.50;8.10;;;;;;;;;;5084577;28;20404;-86
2021/07/20 01:25:12;;;;;;;14.20;9.48;;;;;;;;;;5085234;28;20458;-86
2021/07/20 01:27:44;;;;;;;16.80;11.35;;;;;;;;;;5084618;28;20401;-86
2021/07/20 01:30:12;;;;;;;20.17;12.70;;;;;;;;;;5083618;28;20408;-85
2021/07/20 01:32:40;;;;;;;19.98;12.13;;;;;;;;;;5083700;28;20868;-85
2021/07/20 01:35:10;;;;;;;18.07;12.00;;;;;;;;;;5083459;28;20465;-86
2021/07/20 01:37:39;;;;;;;20.00;10.65;;;;;;;;;;5083739;28;20960;-86
2021/07/20 01:40:08;;;;;;;15.70;9.07;;;;;;;;;;5084371;28;20400;-84
2021/07/20 01:42:37;;;;;;;17.08;9.48;;;;;;;;;;5084234;28;20408;-86
2021/07/20 01:45:05;;;;;;;13.37;8.50;;;;;;;;;;5084462;28;20389;-85
2021/07/20 01:47:33;;;;;;;15.75;8.32;;;;;;;;;;5084487;28;20465;-85
2021/07/20 01:50:02;;;;;;;12.23;7.90;;;;;;;;;;5084013;28;20396;-85
2021/07/20 01:52:32;;;;;;;15.47;7.90;;;;;;;;;;5083374;28;20392;-86
2021/07/20 01:54:59;;;;;;;16.25;7.88;;;;;;;;;;5081838;28;20502;-86
2021/07/20 01:57:26;;;;;;;15.73;8.07;;;;;;;;;;5081467;28;20400;-86
2021/07/20 01:59:57;;;;;;;13.98;7.65;;;;;;;;;;5083648;28;20400;-86
2021/07/20 02:02:30;;;;;;;13.80;8.18;;;;;;;;;;5083859;28;20400;-86
2021/07/20 02:10:32;;;;;;;14.23;6.65;;;;;;;;;;5082227;28;20925;-85
2021/07/20 02:13:02;;;;;;;12.55;6.50;;;;;;;;;;5085187;28;20401;-85
2021/07/20 02:15:31;;;;;;;10.75;6.13;;;;;;;;;;5081898;28;20928;-85
2021/07/20 02:17:59;;;;;;;13.63;6.60;;;;;;;;;;5081298;28;20388;-85
2021/07/20 02:20:28;;;;;;;12.17;6.47;;;;;;;;;;5081079;28;20452;-85
2021/07/20 02:22:57;;;;;;;9.75;6.10;;;;;;;;;;5085253;28;20442;-85
2021/07/20 02:25:25;;;;;;;10.68;6.10;;;;;;;;;;5085349;28;20403;-85
2021/07/20 02:27:53;;;;;;;11.65;6.38;;;;;;;;;;5085070;28;20407;-85
2021/07/20 02:30:21;;;;;;;11.02;6.45;;;;;;;;;;5085180;28;20941;-85
2021/07/20 02:32:50;;;;;;;12.65;6.60;;;;;;;;;;5085330;28;20461;-85
2021/07/20 02:35:21;;;;;;;15.00;6.70;;;;;;;;;;5084804;28;20915;-85
2021/07/20 02:37:50;;;;;;;12.93;6.63;;;;;;;;;;5084473;28;20396;-85
2021/07/20 02:40:18;;;;;;;11.97;6.63;;;;;;;;;;5080575;28;20442;-85
2021/07/20 02:42:47;;;;;;;12.98;6.63;;;;;;;;;;5081917;28;20470;-85
2021/07/20 02:45:15;;;;;;;13.02;6.80;;;;;;;;;;5081509;28;20992;-85
2021/07/20 02:47:43;;;;;;;13.95;6.53;;;;;;;;;;5082077;28;20430;-85
2021/07/20 02:50:14;;;;;;;12.18;6.53;;;;;;;;;;5083592;28;20404;-85
2021/07/20 02:52:44;;;;;;;13.83;6.40;;;;;;;;;;5086485;28;20453;-85
2021/07/20 02:55:12;;;;;;;9.60;5.75;;;;;;;;;;5084938;28;20450;-86
2021/07/20 02:57:40;;;;;;;12.48;6.35;;;;;;;;;;5085381;28;20484;-86
2021/07/20 03:00:08;;;;;;;12.65;6.40;;;;;;;;;;5085082;28;20729;-85
2021/07/20 03:02:37;;;;;;;11.05;6.13;;;;;;;;;;5085553;28;20444;-86
2021/07/20 03:05:05;;;;;;;10.20;6.35;;;;;;;;;;5085124;28;20411;-86
2021/07/20 03:07:35;;;;;;;11.85;6.65;;;;;;;;;;5085573;28;20427;-86
2021/07/20 03:10:02;;;;;;;12.75;6.65;;;;;;;;;;5085349;28;20401;-85
2021/07/20 03:12:31;;;;;;;10.80;6.32;;;;;;;;;;5085300;28;20400;-85
2021/07/20 03:14:59;;;;;;;10.75;6.30;;;;;;;;;;5081454;28;20404;-85
2021/07/20 03:17:29;;;;;;;12.32;6.55;;;;;;;;;;5080871;28;21105;-85
2021/07/20 03:19:58;;;;;;;13.82;6.68;;;;;;;;;;5081095;28;20419;-85
2021/07/20 03:22:29;;;;;;;15.75;6.38;;;;;;;;;;5080903;28;20404;-85
2021/07/20 03:25:01;;;;;;;14.32;6.88;;;;;;;;;;5080921;28;20908;-85
2021/07/20 03:27:31;;;;;;;12.95;6.55;;;;;;;;;;5081443;28;20413;-86
2021/07/20 03:29:59;;;;;;;12.18;6.47;;;;;;;;;;5085098;28;20408;-85
2021/07/20 03:32:27;;;;;;;11.45;5.93;;;;;;;;;;5081008;28;20919;-86
2021/07/20 03:34:55;;;;;;;13.18;6.40;;;;;;;;;;5084703;28;20795;-86
2021/07/20 03:37:23;;;;;;;13.55;6.10;;;;;;;;;;5084727;28;20458;-86
2021/07/20 03:39:53;;;;;;;13.98;6.40;;;;;;;;;;5084852;28;20404;-86
2021/07/20 03:42:23;;;;;;;13.38;6.05;;;;;;;;;;5084434;28;20415;-85
2021/07/20 03:44:51;;;;;;;11.77;6.50;;;;;;;;;;5084630;28;20773;-85
2021/07/20 03:47:19;;;;;;;10.90;6.03;;;;;;;;;;5084137;28;20424;-86
2021/07/20 03:49:48;;;;;;;9.13;5.65;;;;;;;;;;5084468;28;20404;-85
2021/07/20 03:52:15;;;;;;;13.27;6.30;;;;;;;;;;5084178;28;20985;-85
2021/07/20 03:54:43;;;;;;;14.10;6.55;;;;;;;;;;5084399;28;20404;-83
2021/07/20 03:57:13;;;;;;;8.90;6.18;;;;;;;;;;5084111;28;20396;-85
2021/07/20 03:59:43;;;;;;;11.30;6.30;;;;;;;;;;5082620;28;20748;-85
2021/07/20 04:02:11;;;;;;;11.85;6.38;;;;;;;;;;5083856;28;21045;-86
2021/07/20 04:04:41;;;;;;;11.75;6.75;;;;;;;;;;5079431;28;20416;-86
2021/07/20 04:07:12;;;;;;;12.55;6.60;;;;;;;;;;5080038;28;20443;-85
2021/07/20 04:09:40;;;;;;;15.77;6.82;;;;;;;;;;5081200;28;20392;-86
2021/07/20 04:12:08;;;;;;;12.20;6.95;;;;;;;;;;5083333;28;21029;-85
2021/07/20 04:14:37;;;;;;;12.30;6.18;;;;;;;;;;5080867;28;20465;-85
2021/07/20 04:17:06;;;;;;;10.70;6.30;;;;;;;;;;5082818;28;20392;-86
2021/07/20 04:19:34;;;;;;;9.55;6.25;;;;;;;;;;5084586;28;20797;-86
2021/07/20 04:22:02;;;;;;;12.65;6.13;;;;;;;;;;5084828;28;20401;-86
2021/07/20 04:24:30;;;;;;;10.07;6.10;;;;;;;;;;5087959;28;20495;-86
2021/07/20 04:26:58;;;;;;;11.40;6.47;;;;;;;;;;5094860;28;20428;-86
2021/07/20 04:29:25;;;;;;;9.57;6.05;;;;;;;;;;5097124;28;20404;-85
2021/07/20 04:31:55;;;;;;;10.90;6.22;;;;;;;;;;5093973;28;20396;-86
2021/07/20 04:34:23;;;;;;;13.40;6.30;;;;;;;;;;5084571;28;20409;-86
2021/07/20 04:36:50;;;;;;;12.43;6.30;;;;;;;;;;5087911;28;20949;-85
2021/07/20 04:39:17;;;;;;;11.33;6.33;;;;;;;;;;5081052;28;20408;-85
2021/07/20 04:41:46;;;;;;;12.43;6.50;;;;;;;;;;5082843;28;20799;-86
2021/07/20 04:44:14;;;;;;;15.18;6.97;;;;;;;;;;5082114;28;20405;-86
2021/07/20 04:46:41;;;;;;;11.98;6.97;;;;;;;;;;5082639;28;20947;-86
2021/07/20 04:49:08;;;;;;;12.60;6.72;;;;;;;;;;5082297;28;20392;-86
2021/07/20 04:51:38;;;;;;;11.82;6.72;;;;;;;;;;5080150;28;20412;-86
2021/07/20 04:54:08;;;;;;;14.63;6.75;;;;;;;;;;5079410;28;20400;-86
2021/07/20 04:56:35;;;;;;;11.50;6.55;;;;;;;;;;5080211;28;20408;-86
2021/07/20 04:59:02;;;;;;;13.10;6.20;;;;;;;;;;5081964;28;20783;-85
2021/07/20 05:01:29;;;;;;;17.33;6.80;;;;;;;;;;5081421;28;20802;-85
2021/07/20 05:03:58;;;;;;;10.43;6.28;;;;;;;;;;5077663;28;20404;-86
2021/07/20 05:06:26;;;;;;;9.77;6.00;;;;;;;;;;5071822;28;20525;-85
2021/07/20 05:08:56;;;;;;;10.55;5.95;;;;;;;;;;5077941;28;20457;-85
2021/07/20 05:11:23;;;;;;;11.10;6.07;;;;;;;;;;5082344;28;20404;-85
2021/07/20 05:13:50;;;;;;;11.75;5.95;;;;;;;;;;5078970;28;20651;-86
2021/07/20 05:16:17;;;;;;;11.18;5.60;;;;;;;;;;5080951;28;20479;-86
2021/07/20 05:18:45;;;;;;;9.52;5.63;;;;;;;;;;5081934;28;20953;-85
2021/07/20 05:21:13;;;;;;;11.57;5.63;;;;;;;;;;5081682;28;20404;-85
2021/07/20 05:23:41;;;;;;;11.10;5.68;;;;;;;;;;5079971;28;20510;-85
2021/07/20 05:26:12;;;;;;;10.07;5.75;;;;;;;;;;5079833;28;20465;-86
2021/07/20 05:28:39;;;;;;;9.93;5.83;;;;;;;;;;5080001;28;20884;-86
2021/07/20 05:31:07;;;;;;;12.25;5.50;;;;;;;;;;5082304;28;20407;-85
2021/07/20 05:33:34;;;;;;;12.87;6.00;;;;;;;;;;5082277;28;20400;-85
2021/07/20 05:36:03;;;;;;;11.68;5.90;;;;;;;;;;5081855;28;20416;-86
2021/07/20 05:38:31;;;;;;;9.98;5.70;;;;;;;;;;5081087;28;21116;-85
2021/07/20 05:41:00;;;;;;;10.73;5.35;;;;;;;;;;5080017;28;20881;-87
2021/07/20 05:43:30;;;;;;;9.77;5.40;;;;;;;;;;5079652;28;20412;-87
2021/07/20 05:46:00;;;;;;;8.07;5.47;;;;;;;;;;5080324;28;20401;-87
2021/07/20 05:48:28;;;;;;;13.20;5.72;;;;;;;;;;5080242;28;20408;-87
2021/07/20 05:50:58;;;;;;;11.45;5.25;;;;;;;;;;5081406;28;20864;-87
2021/07/20 05:53:28;;;;;;;12.57;5.20;;;;;;;;;;5081437;28;20894;-87
2021/07/20 05:56:00;;;;;;;7.63;5.07;;;;;;;;;;5081608;28;20807;-87
2021/07/20 05:58:28;;;;;;;9.65;4.88;;;;;;;;;;5080638;28;20408;-87
2021/07/20 06:01:00;;;;;;;9.32;5.45;;;;;;;;;;5081367;28;20400;-85
2021/07/20 06:03:27;;;;;;;11.30;5.40;;;;;;;;;;5080308;28;20421;-87
2021/07/20 06:05:56;;;;;;;10.80;5.40;;;;;;;;;;5078945;28;20441;-84
2021/07/20 06:08:24;;;;;;;8.35;5.35;;;;;;;;;;5081348;28;20427;-84
2021/07/20 06:10:54;;;;;;;12.00;5.40;;;;;;;;;;5081115;28;20392;-84
2021/07/20 06:13:24;;;;;;;9.40;5.30;;;;;;;;;;5076100;28;20419;-84
2021/07/20 06:15:54;;;;;;;13.68;5.00;;;;;;;;;;5081512;28;20473;-84
2021/07/20 06:18:21;;;;;;;10.30;5.20;;;;;;;;;;5080988;28;20408;-83
2021/07/20 06:20:52;;;;;;;10.25;5.30;;;;;;;;;;5081425;28;20451;-84
2021/07/20 06:23:21;;;;;;;9.45;5.18;;;;;;;;;;5081428;28;20937;-83
2021/07/20 06:25:49;;;;;;;10.90;5.30;;;;;;;;;;5083065;28;20400;-84
2021/07/20 06:28:17;;;;;;;9.68;5.18;;;;;;;;;;5084540;28;20416;-84
2021/07/20 06:30:45;;;;;;;12.07;5.07;;;;;;;;;;5085126;28;20396;-84
2021/07/20 06:33:14;;;;;;;12.15;5.30;;;;;;;;;;5084818;28;20400;-84
2021/07/20 06:35:44;;;;;;;10.40;5.50;;;;;;;;;;5085902;28;20751;-82
2021/07/20 06:38:14;;;;;;;13.70;5.33;;;;;;;;;;5085565;28;20492;-83
2021/07/20 06:40:44;;;;;;;9.13;5.05;;;;;;;;;;5083841;28;20483;-84
2021/07/20 06:43:14;;;;;;;8.95;4.95;;;;;;;;;;5085539;28;20407;-83
2021/07/20 06:45:42;;;;;;;12.13;5.50;;;;;;;;;;5083595;28;20828;-82
2021/07/20 06:48:12;;;;;;;9.73;5.30;;;;;;;;;;5082658;28;20765;-82
2021/07/20 06:50:40;;;;;;;7.18;4.72;;;;;;;;;;5082831;28;20404;-84
2021/07/20 06:53:08;;;;;;;9.43;4.88;;;;;;;;;;5084983;28;20473;-84
2021/07/20 06:55:37;;;;;;;9.88;5.00;;;;;;;;;;5084597;28;20404;-83
2021/07/20 06:58:06;;;;;;;10.23;4.67;;;;;;;;;;5084377;28;20589;-84
2021/07/20 07:00:33;;;;;;;10.65;4.88;;;;;;;;;;5085029;28;20424;-83
2021/07/20 07:03:02;;;;;;;8.75;4.50;;;;;;;;;;5082249;28;20955;-83
2021/07/20 07:05:30;;;;;;;11.43;4.60;;;;;;;;;;5083917;28;20400;-83
2021/07/20 07:07:59;;;;;;;9.80;4.30;;;;;;;;;;5083507;28;20415;-84
2021/07/20 07:10:27;;;;;;;11.18;4.13;;;;;;;;;;5083221;28;20480;-82
2021/07/20 07:12:54;;;;;;;9.48;4.18;;;;;;;;;;5084570;28;20791;-84
2021/07/20 07:15:22;;;;;;;9.60;3.88;;;;;;;;;;5084585;28;20412;-84
2021/07/20 07:17:52;;;;;;;7.18;3.75;;;;;;;;;;5084317;28;20407;-83
2021/07/20 07:20:25;;;;;;;10.18;4.22;;;;;;;;;;5084589;28;20410;-82
2021/07/20 07:22:53;;;;;;;7.78;4.25;;;;;;;;;;5084842;28;20420;-84
2021/07/20 07:25:22;;;;;;;8.05;4.47;;;;;;;;;;5084346;28;20411;-84
2021/07/20 07:27:52;;;;;;;11.30;4.03;;;;;;;;;;5084236;28;20477;-82
2021/07/20 07:30:19;;;;;;;9.68;4.35;;;;;;;;;;5083997;28;20453;-84
2021/07/20 07:32:49;;;;;;;10.80;4.53;;;;;;;;;;5084496;28;20426;-82
2021/07/20 07:35:16;;;;;;;10.20;4.40;;;;;;;;;;5083493;28;20487;-85
2021/07/20 07:37:45;;;;;;;7.10;3.97;;;;;;;;;;5084147;28;20398;-84
2021/07/20 07:40:15;;;;;;;9.13;4.43;;;;;;;;;;5084287;28;20422;-84
2021/07/20 07:42:44;;;;;;;8.75;4.30;;;;;;;;;;5082894;28;20458;-82
2021/07/20 07:45:14;;;;;;;9.90;4.35;;;;;;;;;;5081706;28;20449;-84
2021/07/20 07:47:45;;;;;;;11.73;4.40;;;;;;;;;;5082256;28;21104;-84
2021/07/20 07:50:13;;;;;;;10.30;4.38;;;;;;;;;;5081476;28;20458;-84
2021/07/20 07:52:41;;;;;;;9.50;4.28;;;;;;;;;;5080317;28;20804;-82
2021/07/20 07:55:10;;;;;;;6.65;3.88;;;;;;;;;;5075420;28;20644;-84
2021/07/20 07:57:38;;;;;;;8.45;4.30;;;;;;;;;;5084039;28;20408;-82
2021/07/20 08:00:08;;;;;;;8.43;4.28;;;;;;;;;;5080438;28;20457;-83
2021/07/20 08:02:36;;;;;;;7.07;4.45;;;;;;;;;;5083921;28;20396;-82
2021/07/20 08:05:06;;;;;;;7.13;4.30;;;;;;;;;;5078747;28;20439;-83
2021/07/20 08:07:36;;;;;;;7.83;4.20;;;;;;;;;;5080408;28;20457;-83
2021/07/20 08:10:03;;;;;;;11.63;4.38;;;;;;;;;;5083064;28;20737;-84
2021/07/20 08:12:30;;;;;;;9.50;4.27;;;;;;;;;;5083034;28;20446;-83
2021/07/20 08:14:58;;;;;;;7.82;4.03;;;;;;;;;;5080780;28;20392;-83
2021/07/20 08:17:26;;;;;;;9.23;4.20;;;;;;;;;;5082302;28;20481;-84
2021/07/20 08:19:56;;;;;;;8.32;4.10;;;;;;;;;;5082021;28;20931;-83
2021/07/20 08:22:23;;;;;;;8.63;4.00;;;;;;;;;;5082478;28;20810;-83
2021/07/20 08:24:57;;;;;;;8.23;3.97;;;;;;;;;;5081914;28;20404;-83
2021/07/20 08:27:31;;;;;;;7.93;3.88;;;;;;;;;;5083062;28;20828;-83
2021/07/20 08:30:00;;;;;;;9.77;4.13;;;;;;;;;;5077078;28;20531;-82
2021/07/20 08:32:32;;;;;;;10.68;4.20;;;;;;;;;;5081381;28;20823;-83
2021/07/20 08:35:02;;;;;;;10.23;4.47;;;;;;;;;;5081768;28;20396;-82
2021/07/20 08:37:34;;;;;;;9.50;4.40;;;;;;;;;;5078506;28;20407;-84
2021/07/20 08:40:03;;;;;;;7.53;4.07;;;;;;;;;;5081616;28;20458;-82
2021/07/20 08:42:43;;;;;;;7.50;4.10;;;;;;;;;;5082167;28;20998;-83
2021/07/20 08:45:15;;;;;;;7.40;4.20;;;;;;;;;;5080454;28;20401;-84
2021/07/20 08:48:08;;;;;;;8.00;4.00;;;;;;;;;;5078713;28;20953;-83
2021/07/20 08:50:40;;;;;;;9.98;4.45;;;;;;;;;;5082748;28;20911;-84
2021/07/20 08:53:17;;;;;;;8.70;3.85;;;;;;;;;;5082916;28;20441;-83
2021/07/20 08:55:45;;;;;;;7.85;4.30;;;;;;;;;;5081216;28;20408;-83
2021/07/20 08:58:18;;;;;;;10.17;4.80;;;;;;;;;;5080751;28;21101;-82
2021/07/20 09:00:48;;;;;;;8.13;4.43;;;;;;;;;;5081449;28;20404;-83
2021/07/20 09:03:32;;;;;;;7.88;4.50;;;;;;;;;;5081498;28;20411;-82
2021/07/20 09:06:04;;;;;;;8.00;4.57;;;;;;;;;;5079921;28;20399;-84
2021/07/20 09:08:37;;;;;;;9.93;4.40;;;;;;;;;;5080766;28;20424;-82
2021/07/20 09:11:11;;;;;;;8.70;4.90;;;;;;;;;;5079416;28;20406;-84
2021/07/20 09:13:42;;;;;;;8.90;4.43;;;;;;;;;;5083286;28;20399;-82
2021/07/20 09:16:19;;;;;;;8.50;4.83;;;;;;;;;;5082419;28;20422;-84
2021/07/20 09:18:53;;;;;;;7.75;4.30;;;;;;;;;;5081078;28;20404;-83
2021/07/20 09:21:22;;;;;;;7.82;4.53;;;;;;;;;;5082940;28;20404;-82
2021/07/20 09:23:57;;;;;;;7.32;4.80;;;;;;;;;;5082173;28;20894;-82
2021/07/20 09:26:25;;;;;;;8.05;4.72;;;;;;;;;;5082893;28;20396;-83
2021/07/20 09:28:57;;;;;;;9.88;4.97;;;;;;;;;;5082708;28;20475;-83
2021/07/20 09:31:32;;;;;;;7.60;4.75;;;;;;;;;;5082479;28;20454;-84
2021/07/20 09:34:14;;;;;;;10.27;4.90;;;;;;;;;;5080510;28;20417;-84
2021/07/20 09:36:46;;;;;;;9.65;4.80;;;;;;;;;;5079155;28;20401;-83
2021/07/20 09:39:39;;;;;;;10.00;4.68;;;;;;;;;;5082424;28;20868;-84
2021/07/20 09:42:14;;;;;;;10.57;4.90;;;;;;;;;;5081474;28;20497;-83
2021/07/20 09:44:45;;;;;;;9.05;4.63;;;;;;;;;;5081098;28;20475;-82
2021/07/20 09:47:25;;;;;;;9.68;4.75;;;;;;;;;;5080406;28;20408;-82
2021/07/20 09:50:08;;;;;;;8.77;5.07;;;;;;;;;;5089286;28;20444;-82
2021/07/20 09:53:11;;;;;;;8.97;4.63;;;;;;;;;;5087467;28;20472;-82
2021/07/20 09:55:51;;;;;;;9.77;5.22;;;;;;;;;;5062667;28;20396;-84
2021/07/20 09:58:27;;;;;;;11.15;5.13;;;;;;;;;;5086013;28;20393;-84
2021/07/20 10:01:03;;;;;;;10.23;5.38;;;;;;;;;;5081730;28;20407;-85
2021/07/20 10:03:40;;;;;;;10.02;4.50;;;;;;;;;;5081372;28;20425;-84
2021/07/20 10:06:14;;;;;;;12.90;5.20;;;;;;;;;;5088843;28;20412;-84
2021/07/20 10:08:50;;;;;;;9.48;5.05;;;;;;;;;;5087708;28;20602;-84
2021/07/20 10:11:25;;;;;;;10.13;4.88;;;;;;;;;;5083171;28;20800;-84
2021/07/20 10:14:23;;;;;;;9.63;5.13;;;;;;;;;;5086753;28;20503;-84
2021/07/20 10:16:58;;;;;;;9.15;5.00;;;;;;;;;;5086824;28;20482;-84
2021/07/20 10:19:39;;;;;;;9.30;5.10;;;;;;;;;;5085101;28;20419;-85
2021/07/20 10:22:12;;;;;;;8.52;4.90;;;;;;;;;;5084841;28;20404;-83
2021/07/20 10:24:46;;;;;;;9.68;5.43;;;;;;;;;;5085147;28;20934;-84
2021/07/20 10:27:17;;;;;;;11.00;5.45;;;;;;;;;;5083599;28;20755;-83
2021/07/20 10:29:53;;;;;;;9.65;5.00;;;;;;;;;;5085444;28;20891;-84
2021/07/20 10:32:25;;;;;;;9.75;5.43;;;;;;;;;;5085893;28;20424;-84
2021/07/20 10:35:01;;;;;;;10.30;5.45;;;;;;;;;;5083046;28;20396;-84
2021/07/20 10:37:33;;;;;;;11.15;5.25;;;;;;;;;;5082489;28;20404;-83
2021/07/20 10:40:03;;;;;;;10.95;5.65;;;;;;;;;;5079922;28;20402;-84
2021/07/20 10:42:36;;;;;;;9.00;5.50;;;;;;;;;;5084762;28;20776;-84
2021/07/20 10:45:05;;;;;;;8.10;5.17;;;;;;;;;;5084171;28;20454;-84
2021/07/20 10:47:37;;;;;;;10.60;5.70;;;;;;;;;;5081789;28;20392;-85
2021/07/20 10:50:06;;;;;;;12.15;5.70;;;;;;;;;;5080795;28;20513;-82
2021/07/20 10:53:04;;;;;;;8.73;5.60;;;;;;;;;;5078808;28;21057;-85
2021/07/20 10:55:39;;;;;;;9.20;5.57;;;;;;;;;;5080838;28;20907;-83
2021/07/20 10:58:19;;;;;;;11.02;6.20;;;;;;;;;;5084956;28;20880;-84
2021/07/20 11:00:52;;;;;;;9.25;6.00;;;;;;;;;;5083893;28;20427;-84
2021/07/20 11:03:26;;;;;;;10.13;6.30;;;;;;;;;;5077541;28;20498;-84
2021/07/20 11:05:54;;;;;;;10.80;6.45;;;;;;;;;;5074546;28;20880;-84
2021/07/20 11:08:23;;;;;;;9.65;5.82;;;;;;;;;;5080949;28;20420;-83
2021/07/20 11:10:52;;;;;;;11.45;6.30;;;;;;;;;;5075028;28;20392;-85
2021/07/20 11:13:22;;;;;;;13.35;5.85;;;;;;;;;;5082519;28;20400;-83
2021/07/20 11:15:53;;;;;;;13.45;6.20;;;;;;;;;;5080009;28;20462;-84
2021/07/20 11:18:25;;;;;;;9.30;5.80;;;;;;;;;;5070803;28;20406;-83
2021/07/20 11:20:54;;;;;;;9.13;6.00;;;;;;;;;;5076643;28;20849;-84
2021/07/20 11:23:24;;;;;;;10.38;6.13;;;;;;;;;;5079129;28;20418;-83
2021/07/20 11:25:51;;;;;;;10.27;5.72;;;;;;;;;;5077825;28;20404;-82
2021/07/20 11:28:20;;;;;;;9.50;5.95;;;;;;;;;;5075593;28;20404;-83
2021/07/20 11:30:51;;;;;;;9.32;6.22;;;;;;;;;;5082483;28;20396;-83
2021/07/20 11:33:23;;;;;;;10.60;6.32;;;;;;;;;;5081121;28;20481;-84
2021/07/20 11:35:53;;;;;;;9.35;6.30;;;;;;;;;;5081785;28;20402;-85
2021/07/20 11:38:27;;;;;;;11.20;6.97;;;;;;;;;;5080820;28;20982;-84
2021/07/20 11:41:01;;;;;;;11.50;6.45;;;;;;;;;;5082933;28;20812;-84
2021/07/20 11:43:33;;;;;;;9.30;6.37;;;;;;;;;;5071482;28;20412;-84
2021/07/20 11:46:04;;;;;;;9.45;6.20;;;;;;;;;;5073021;28;20405;-83
2021/07/20 11:48:39;;;;;;;10.98;6.22;;;;;;;;;;5073050;28;20400;-84
2021/07/20 11:51:11;;;;;;;10.40;6.50;;;;;;;;;;5074441;28;20410;-84
2021/07/20 11:53:50;;;;;;;12.32;6.78;;;;;;;;;;5072061;28;20413;-85
2021/07/20 11:56:23;;;;;;;10.07;7.10;;;;;;;;;;5073618;28;20434;-83
2021/07/20 11:59:27;;;;;;;11.45;6.72;;;;;;;;;;5071637;28;20980;-83
2021/07/20 12:02:32;;;;;;;8.70;6.43;;;;;;;;;;5070863;28;20400;-84
2021/07/20 12:05:21;;;;;;;13.00;7.13;;;;;;;;;;5042380;28;20592;-85
2021/07/20 12:07:52;;;;;;;9.70;6.70;;;;;;;;;;5070088;28;20959;-83
2021/07/20 12:10:43;;;;;;;10.10;6.88;;;;;;;;;;5072462;28;20425;-85
2021/07/20 12:13:13;;;;;;;11.05;6.70;;;;;;;;;;5069902;28;20457;-85
2021/07/20 12:15:40;;;;;;;9.75;6.82;;;;;;;;;;5072967;28;20412;-85
2021/07/20 12:18:08;;;;;;;11.45;7.03;;;;;;;;;;5075370;28;20410;-83
2021/07/20 12:20:36;;;;;;;10.00;6.60;;;;;;;;;;5076779;28;20409;-85
2021/07/20 12:23:04;;;;;;;8.65;6.47;;;;;;;;;;5073506;28;20405;-85
2021/07/20 12:25:32;;;;;;;11.30;7.03;;;;;;;;;;5077414;28;20775;-84
2021/07/20 12:28:01;;;;;;;10.10;6.82;;;;;;;;;;5079775;28;20404;-84
2021/07/20 12:30:29;;;;;;;13.43;6.87;;;;;;;;;;5078306;28;20989;-83
2021/07/20 12:32:57;;;;;;;9.60;7.18;;;;;;;;;;5079527;28;20404;-83
2021/07/20 12:35:27;;;;;;;12.48;6.95;;;;;;;;;;5071030;28;20415;-84
2021/07/20 12:38:02;;;;;;;11.15;6.93;;;;;;;;;;5074684;28;20400;-83
2021/07/20 12:40:30;;;;;;;8.60;6.83;;;;;;;;;;5076971;28;20402;-85
2021/07/20 12:43:09;;;;;;;10.70;7.03;;;;;;;;;;5084007;28;20462;-83
2021/07/20 12:45:35;;;;;;;10.80;7.10;;;;;;;;;;5081312;28;20393;-86
2021/07/20 12:48:03;;;;;;;8.95;7.00;;;;;;;;;;5080361;28;20396;-84
2021/07/20 12:50:30;;;;;;;10.23;7.22;;;;;;;;;;5081230;28;20938;-83
2021/07/20 12:52:57;;;;;;;13.50;7.22;;;;;;;;;;5081524;28;20928;-85
2021/07/20 12:55:24;;;;;;;9.73;6.93;;;;;;;;;;5079906;28;20436;-83
2021/07/20 12:57:53;;;;;;;11.93;7.07;;;;;;;;;;5081855;28;21396;-84
2021/07/20 13:00:25;;;;;;;10.07;6.80;;;;;;;;;;5078695;28;20403;-85
2021/07/20 13:02:53;;;;;;;11.68;6.68;;;;;;;;;;5081581;28;20462;-84
2021/07/20 13:05:21;;;;;;;12.70;7.27;;;;;;;;;;5081926;28;20427;-84
2021/07/20 13:07:49;;;;;;;10.57;7.28;;;;;;;;;;5076026;28;20818;-86
2021/07/20 13:10:16;;;;;;;10.13;6.90;;;;;;;;;;5069330;28;20501;-84
2021/07/20 13:12:45;;;;;;;11.27;6.93;;;;;;;;;;5070623;28;20396;-83
2021/07/20 13:15:14;;;;;;;12.15;7.18;;;;;;;;;;5068748;28;20408;-83
2021/07/20 13:17:42;;;;;;;9.85;7.18;;;;;;;;;;5074627;28;20717;-85
2021/07/20 13:20:10;;;;;;;9.70;6.78;;;;;;;;;;5070376;28;20434;-84
2021/07/20 13:22:39;;;;;;;9.02;6.97;;;;;;;;;;5073408;28;20750;-84
2021/07/20 13:25:09;;;;;;;9.85;7.03;;;;;;;;;;5075358;28;20771;-84
2021/07/20 13:27:37;;;;;;;12.40;7.28;;;;;;;;;;5073378;28;20803;-85
2021/07/20 13:30:07;;;;;;;12.05;7.20;;;;;;;;;;5074239;28;20503;-82
2021/07/20 13:32:34;;;;;;;9.38;6.75;;;;;;;;;;5072675;28;20401;-84
2021/07/20 13:35:03;;;;;;;10.90;7.10;;;;;;;;;;5080578;28;20445;-83
2021/07/20 13:37:31;;;;;;;11.02;6.65;;;;;;;;;;5079210;28;20450;-85
2021/07/20 13:39:58;;;;;;;9.02;6.80;;;;;;;;;;5079283;28;20400;-85
2021/07/20 13:42:26;;;;;;;11.50;6.97;;;;;;;;;;5078481;28;20430;-85
2021/07/20 13:44:57;;;;;;;12.60;7.07;;;;;;;;;;5078183;28;20456;-84
2021/07/20 13:47:29;;;;;;;12.73;7.40;;;;;;;;;;5080525;28;20458;-85
2021/07/20 13:50:00;;;;;;;14.48;7.20;;;;;;;;;;5080128;28;20412;-84
2021/07/20 13:52:31;;;;;;;11.90;7.40;;;;;;;;;;5078327;28;20835;-84
2021/07/20 13:55:05;;;;;;;10.20;7.20;;;;;;;;;;5079330;28;20478;-85
2021/07/20 13:57:33;;;;;;;11.15;7.38;;;;;;;;;;5077508;28;20400;-86
2021/07/20 14:00:01;;;;;;;11.13;6.67;;;;;;;;;;5080119;28;20755;-85
2021/07/20 14:02:28;;;;;;;9.88;6.85;;;;;;;;;;5072571;28;20511;-85
2021/07/20 14:04:56;;;;;;;12.38;7.25;;;;;;;;;;5081502;28;20903;-84
2021/07/20 14:07:23;;;;;;;13.57;7.10;;;;;;;;;;5080967;28;21296;-85
2021/07/20 14:09:53;;;;;;;10.63;7.00;;;;;;;;;;5081362;28;20975;-86
2021/07/20 14:12:21;;;;;;;9.55;6.45;;;;;;;;;;5079969;28;20403;-84
2021/07/20 14:14:50;;;;;;;11.55;6.60;;;;;;;;;;5073384;28;20832;-84
2021/07/20 14:17:18;;;;;;;10.15;6.43;;;;;;;;;;5075484;28;20488;-85
2021/07/20 14:19:46;;;;;;;11.63;6.53;;;;;;;;;;5076541;28;20453;-86
2021/07/20 14:22:18;;;;;;;12.07;6.85;;;;;;;;;;5079149;28;20396;-85
2021/07/20 14:24:46;;;;;;;11.38;6.82;;;;;;;;;;5081039;28;20422;-84
2021/07/20 14:27:15;;;;;;;12.03;6.37;;;;;;;;;;5080485;28;20485;-85
2021/07/20 14:29:43;;;;;;;12.55;6.82;;;;;;;;;;5081714;28;20497;-84
2021/07/20 14:32:12;;;;;;;9.93;6.50;;;;;;;;;;5073446;28;20955;-85
2021/07/20 14:34:44;;;;;;;9.45;6.80;;;;;;;;;;5072775;28;20459;-79
2021/07/20 14:37:34;;;;;;;10.13;6.32;;;;;;;;;;5077850;28;20449;-79
2021/07/20 14:40:02;;;;;;;10.13;6.60;;;;;;;;;;5070879;28;20410;-78
2021/07/20 14:42:32;;;;;;;12.30;6.90;;;;;;;;;;5079580;28;20415;-78
2021/07/20 14:45:02;;;;;;;10.10;6.20;;;;;;;;;;5070416;28;20423;-85
2021/07/20 14:48:00;;;;;;;11.35;6.43;;;;;;;;;;5071677;28;20465;-83
2021/07/20 14:50:29;;;;;;;9.93;6.00;;;;;;;;;;5082545;28;20456;-85
2021/07/20 14:52:58;;;;;;;9.07;5.53;;;;;;;;;;5081296;28;20798;-84
2021/07/20 14:55:34;;;;;;;10.98;6.10;;;;;;;;;;5078999;28;20461;-83
2021/07/20 14:58:08;;;;;;;9.15;5.63;;;;;;;;;;5075787;28;20502;-85